Fort Collins, CO

3:15 PM MDT on July 28, 2016 (GMT -0600)
Fort Collins-Loveland Municipal | | Change Station

Elev 5016 ft 40.45 °N, 105.01 °W | Updated 20 minutes ago

Mostly Cloudy
Mostly Cloudy
79 °F
Feels Like 79 °F
N
12
Wind Variable Wind from ENE

Today
High -- | Low -- °F
--% Chance of Precip.
Yesterday
High -- | Low -- °F
Precip. -- in
Pressure 30.18 in
Visibility 10.0 miles
Clouds Few 4100 ft
Mostly Cloudy 5000 ft
Dew Point 57 °F
Humidity 47%
Rainfall 0.00 in
Snow Depth Not available.
5:54 AM 8:18 PM
Waning Crescent, 29% visible
METAR KFNL 282055Z AUTO 06010KT 050V110 10SM FEW041 BKN050 26/14 A3018 RMK AO1 57007
Pressure 30.18 in
Visibility 10.0 miles
Clouds Few 4100 ft
Mostly Cloudy 5000 ft
Dew Point 57 °F
Humidity 47%
Rainfall 0.00 in
Snow Depth Not available.
5:54 AM 8:18 PM
Waning Crescent, 29% visible
METAR KFNL 282055Z AUTO 06010KT 050V110 10SM FEW041 BKN050 26/14 A3018 RMK AO1 57007

10-Day Weather Forecast

Almanac

Astronomy

Jul. 28, 2016 Rise Set
Actual Time
Civil Twilight
Nautical Twilight
Astronomical Twilight
Moon
Length of Visible Light
Length of Day
Tomorrow will be .
, % of the Moon is Illuminated

Today's Extremes

State Highs State Lows

Community

WunderPhotos

Upload Photos

1,928,224 photos uploaded!

WunderBlog® & News

Nearby

Air Quality

  Air Quality AQ Index Pollutant
Not available.

Snow Depth

Station Depth Elevation

Earthquake Activity

City Distance Mag. Time & Date
Minimum magnitude displayed is 2.5.

Coastal Water Temperatures

Place Temperature

Stations

Nearby Weather Stations

Station Location Temp. Windchill Dew Point Humidity Wind Precip. Elev Updated Type
                   

Watches & Warnings

There are currently no watches in effect.